Time;durP1;ratioP1;P1;durP2;ratioP2;P2;SDS_P1;SDS_P2;PMS_P1;PMS_P2;Temp;Humidity;BMP_temperature;BMP_pressure;BME280_temperature;BME280_humidity;BME280_pressure;Samples;Min_cycle;Max_cycle;Signal;HPM_P1;HPM_P2
2022/08/26 00:04:18;;;;;;;4.70;2.47;;;;;;;21.96;49.12;95829.56;10316059;28;98815;-68
2022/08/26 00:09:24;;;;;;;4.30;2.40;;;;;;;21.77;50.18;95826.97;10308512;28;98568;-68
2022/08/26 00:14:27;;;;;;;2.50;2.00;;;;;;;21.57;50.32;95821.09;10314567;28;98573;-68
2022/08/26 00:19:32;;;;;;;4.90;1.85;;;;;;;21.39;50.55;95833.41;10313512;28;98054;-67
2022/08/26 00:24:37;;;;;;;2.92;2.25;;;;;;;21.41;50.94;95825.22;10315406;28;96874;-67
2022/08/26 00:29:40;;;;;;;3.33;2.25;;;;;;;21.48;49.98;95832.09;10313953;28;99034;-67
2022/08/26 00:34:43;;;;;;;2.65;2.05;;;;;;;21.53;49.45;95827.94;10319766;28;97988;-67
2022/08/26 00:39:47;;;;;;;3.65;1.95;;;;;;;21.57;50.07;95823.78;10319731;28;97011;-68
2022/08/26 00:44:50;;;;;;;3.60;2.10;;;;;;;21.48;50.26;95828.59;10317911;28;97425;-68
2022/08/26 00:49:55;;;;;;;3.03;2.30;;;;;;;21.36;50.90;95844.50;10315511;28;100454;-67
2022/08/26 00:55:02;;;;;;;;;;;;;;;21.18;50.63;95839.25;10320416;28;99529;-67
2022/08/26 01:00:10;;;;;;;3.45;1.98;;;;;;;20.92;50.81;95841.97;10318082;28;98571;-67
2022/08/26 01:05:13;;;;;;;3.22;2.30;;;;;;;20.90;51.20;95837.94;10320118;28;98971;-67
2022/08/26 01:10:21;;;;;;;3.33;1.90;;;;;;;20.98;51.15;95835.00;10321062;28;99285;-67
2022/08/26 01:15:31;;;;;;;2.83;1.85;;;;;;;20.89;51.29;95838.97;10316924;28;98550;-67
2022/08/26 01:20:41;;;;;;;2.58;2.00;;;;;;;20.89;50.94;95833.66;10324607;28;96769;-68
2022/08/26 01:25:50;;;;;;;2.88;1.80;;;;;;;20.86;51.24;95837.59;10323276;28;97297;-68
2022/08/26 01:30:55;;;;;;;4.28;2.20;;;;;;;20.87;50.71;95835.72;10317992;28;99311;-67
2022/08/26 01:35:58;;;;;;;2.88;1.80;;;;;;;20.94;51.27;95841.75;10321881;28;97253;-67
2022/08/26 01:41:03;;;;;;;2.90;2.20;;;;;;;21.00;51.09;95834.75;10320786;28;96767;-67
2022/08/26 01:46:22;;;;;;;2.20;1.90;;;;;;;21.02;51.27;95836.16;10318901;28;97751;-68
2022/08/26 01:51:27;;;;;;;3.63;2.10;;;;;;;20.85;51.21;95845.75;10318977;28;96883;-68
2022/08/26 01:56:31;;;;;;;;;;;;;;;20.72;51.30;95836.91;10318865;28;99246;-67
2022/08/26 02:01:38;;;;;;;3.28;2.22;;;;;;;20.61;52.00;95845.56;10318172;28;97612;-68
2022/08/26 02:06:42;;;;;;;2.65;2.05;;;;;;;20.64;52.11;95845.13;10319100;28;99601;-67
2022/08/26 02:11:46;;;;;;;3.90;2.43;;;;;;;20.65;52.90;95845.94;10315677;28;99072;-67
2022/08/26 02:16:54;;;;;;;3.53;2.15;;;;;;;20.52;52.29;95838.94;10315933;28;98098;-68
2022/08/26 02:21:59;;;;;;;;;;;;;;;20.50;52.10;95844.47;10316245;28;98653;-67
2022/08/26 02:27:05;;;;;;;3.20;2.22;;;;;;;20.51;53.64;95855.88;10311201;28;97115;-67
2022/08/26 02:32:09;;;;;;;4.40;2.30;;;;;;;20.49;53.65;95857.94;10313481;28;98859;-68
2022/08/26 02:37:13;;;;;;;3.78;2.10;;;;;;;20.44;54.08;95849.84;10312313;28;98723;-67
2022/08/26 02:42:20;;;;;;;3.45;2.03;;;;;;;20.34;54.48;95845.84;10308017;28;99700;-67
2022/08/26 02:47:24;;;;;;;3.60;2.38;;;;;;;20.21;54.21;95853.13;10310801;28;98556;-67
2022/08/26 02:52:30;;;;;;;5.47;2.22;;;;;;;20.27;54.72;95845.09;10315118;28;98949;-67
2022/08/26 02:57:35;;;;;;;3.72;2.30;;;;;;;20.40;54.06;95840.69;10307141;28;98947;-67
2022/08/26 03:02:39;;;;;;;3.05;2.10;;;;;;;20.33;53.93;95838.91;10309698;28;98643;-67
2022/08/26 03:07:42;;;;;;;4.15;2.58;;;;;;;20.35;54.69;95830.75;10313460;28;98330;-67
2022/08/26 03:12:48;;;;;;;3.92;2.20;;;;;;;20.34;53.71;95829.94;10304001;28;98746;-67
2022/08/26 03:17:55;;;;;;;4.38;2.75;;;;;;;20.30;54.67;95823.44;10312982;28;97031;-67
2022/08/26 03:22:58;;;;;;;3.00;2.63;;;;;;;20.29;54.47;95821.03;10317069;28;97029;-67
2022/08/26 03:28:03;;;;;;;5.57;2.28;;;;;;;20.33;55.42;95833.59;10310074;28;96901;-67
2022/08/26 03:33:07;;;;;;;;;;;;;;;20.28;54.75;95828.16;10306752;28;99200;-67
2022/08/26 03:38:11;;;;;;;5.33;2.53;;;;;;;20.21;55.29;95831.91;10311686;28;97800;-68
2022/08/26 03:43:16;;;;;;;3.17;2.40;;;;;;;20.10;55.69;95834.22;10311960;28;99111;-67
2022/08/26 03:48:19;;;;;;;4.18;2.40;;;;;;;20.13;55.76;95844.41;10314172;28;99193;-67
2022/08/26 03:53:22;;;;;;;3.40;2.30;;;;;;;20.15;54.99;95830.94;10308002;28;97690;-67
2022/08/26 03:58:27;;;;;;;3.05;2.28;;;;;;;20.17;55.51;95828.88;10316943;28;97548;-67
2022/08/26 04:08:51;;;;;;;4.72;2.38;;;;;;;20.00;55.74;95831.25;10306945;28;97186;-67
2022/08/26 04:13:55;;;;;;;3.05;2.53;;;;;;;19.98;55.09;95831.47;10316314;28;98142;-69
2022/08/26 04:19:01;;;;;;;3.13;2.50;;;;;;;19.94;56.36;95832.13;10313459;28;98372;-67
2022/08/26 04:24:05;;;;;;;4.68;2.65;;;;;;;19.96;56.25;95833.53;10318810;28;98062;-66
2022/08/26 04:29:17;;;;;;;4.43;2.58;;;;;;;19.85;56.72;95833.41;10321103;28;98602;-67
2022/08/26 04:34:19;;;;;;;4.03;2.50;;;;;;;19.66;57.15;95832.50;10316763;28;98276;-67
2022/08/26 04:39:24;;;;;;;2.75;2.45;;;;;;;19.50;57.93;95834.66;10319577;28;99279;-67
2022/08/26 04:44:30;;;;;;;4.28;2.70;;;;;;;19.49;57.34;95827.75;10316127;28;98491;-67
2022/08/26 04:49:34;;;;;;;3.75;2.55;;;;;;;19.59;57.45;95843.97;10315965;28;96995;-67
2022/08/26 04:54:37;;;;;;;5.47;2.73;;;;;;;19.74;57.34;95845.50;10313534;28;96948;-67
2022/08/26 04:59:44;;;;;;;5.50;2.80;;;;;;;19.79;57.68;95850.97;10319390;28;97330;-67
2022/08/26 05:04:51;;;;;;;2.58;2.38;;;;;;;19.82;57.48;95850.59;10330485;28;96802;-67
2022/08/26 05:09:54;;;;;;;4.63;2.78;;;;;;;19.84;58.38;95848.53;10314382;28;98641;-67
2022/08/26 05:14:58;;;;;;;2.78;2.50;;;;;;;19.89;57.70;95858.50;10314194;28;98138;-67
2022/08/26 05:20:01;;;;;;;3.50;2.67;;;;;;;19.95;57.54;95869.00;10305782;28;98042;-67
2022/08/26 05:25:06;;;;;;;3.87;2.23;;;;;;;19.87;57.10;95866.66;10311496;28;98628;-66
2022/08/26 05:30:11;;;;;;;3.43;2.30;;;;;;;19.96;56.93;95865.34;10310219;28;99117;-67
2022/08/26 05:35:14;;;;;;;4.78;2.20;;;;;;;20.00;57.61;95852.47;10314759;28;97532;-67
2022/08/26 05:40:17;;;;;;;3.25;2.13;;;;;;;20.22;56.39;95874.13;10315158;28;96930;-67
2022/08/26 05:45:25;;;;;;;3.17;2.17;;;;;;;20.31;56.37;95872.81;10314665;28;98272;-67
2022/08/26 05:50:28;;;;;;;4.60;2.28;;;;;;;20.34;56.23;95867.06;10315180;28;99468;-67
2022/08/26 05:55:32;;;;;;;4.18;2.50;;;;;;;20.33;56.76;95873.41;10326150;28;96909;-67
2022/08/26 06:00:37;;;;;;;3.88;2.53;;;;;;;20.38;57.03;95878.84;10324995;28;96857;-64
2022/08/26 06:05:41;;;;;;;6.05;2.75;;;;;;;20.44;56.95;95876.38;10323885;28;98001;-64
2022/08/26 06:10:48;;;;;;;4.95;2.53;;;;;;;20.45;57.54;95876.16;10319116;28;96914;-64
2022/08/26 06:15:55;;;;;;;4.60;2.60;;;;;;;20.43;57.55;95885.38;10329925;28;98693;-64
2022/08/26 06:20:59;;;;;;;4.25;2.70;;;;;;;20.29;59.16;95898.75;10321712;28;97519;-65
2022/08/26 06:26:02;;;;;;;4.77;2.87;;;;;;;20.02;59.84;95921.19;10336327;28;98468;-64
2022/08/26 06:31:07;;;;;;;4.47;2.90;;;;;;;19.74;61.35;95939.06;10323068;28;99407;-64
2022/08/26 06:36:16;;;;;;;7.30;3.08;;;;;;;19.67;62.13;95940.13;10322639;28;98915;-64
2022/08/26 06:41:21;;;;;;;3.78;3.03;;;;;;;19.66;62.50;95943.81;10326447;28;98625;-65
2022/08/26 06:46:26;;;;;;;4.60;3.70;;;;;;;19.55;63.71;95946.09;10326678;28;99396;-60
2022/08/26 06:51:30;;;;;;;5.88;3.75;;;;;;;19.25;64.92;95938.69;10321549;28;97263;-60
2022/08/26 06:56:38;;;;;;;5.22;3.78;;;;;;;19.15;66.33;95948.91;10322960;28;96702;-60
2022/08/26 07:01:44;;;;;;;5.40;3.95;;;;;;;19.18;66.38;95945.84;10319928;28;96750;-60
2022/08/26 07:06:49;;;;;;;6.25;3.85;;;;;;;19.21;67.16;95947.25;10319928;28;96983;-62
2022/08/26 07:11:55;;;;;;;5.55;3.85;;;;;;;19.36;66.75;95947.00;10329473;28;96813;-60
2022/08/26 07:17:00;;;;;;;4.63;4.05;;;;;;;19.42;67.50;95948.81;10319973;28;99021;-60
2022/08/26 07:22:05;;;;;;;4.72;3.50;;;;;;;19.37;66.73;95919.50;10323492;28;96806;-60
2022/08/26 07:27:12;;;;;;;5.40;3.47;;;;;;;19.79;66.76;95939.25;10327265;28;96889;-60
2022/08/26 07:32:19;;;;;;;3.80;3.40;;;;;;;19.95;65.84;95932.63;10316457;28;97703;-60
2022/08/26 07:37:24;;;;;;;4.13;3.72;;;;;;;20.23;65.90;95936.72;10324790;28;97367;-60
2022/08/26 07:42:27;;;;;;;7.15;3.63;;;;;;;20.45;66.15;95925.75;10320285;28;97371;-61
2022/08/26 07:47:32;;;;;;;5.00;3.30;;;;;;;20.60;66.05;95930.72;10324741;28;97129;-61
2022/08/26 07:52:36;;;;;;;4.50;3.13;;;;;;;20.65;66.14;95930.88;10320097;28;96984;-61
2022/08/26 07:57:40;;;;;;;4.10;3.03;;;;;;;20.78;65.72;95929.97;10324674;28;96940;-60
2022/08/26 08:02:45;;;;;;;5.40;3.55;;;;;;;20.89;65.49;95938.03;10319645;28;96800;-61
2022/08/26 08:07:48;;;;;;;3.63;2.80;;;;;;;20.94;65.10;95940.81;10327057;28;96874;-61
2022/08/26 08:13:04;;;;;;;4.83;2.93;;;;;;;20.90;65.80;95960.06;10329692;28;96818;-61
2022/08/26 08:18:08;;;;;;;7.03;3.35;;;;;;;20.91;65.86;95967.00;10327807;28;96771;-60
2022/08/26 08:23:17;;;;;;;4.68;3.00;;;;;;;21.09;65.06;95953.75;10322224;28;97056;-60
2022/08/26 08:28:20;;;;;;;5.78;3.03;;;;;;;21.24;64.63;95965.84;10331385;28;96811;-61
2022/08/26 08:33:24;;;;;;;3.38;2.83;;;;;;;21.45;64.11;95973.38;10331876;28;97226;-60
2022/08/26 08:38:28;;;;;;;6.05;3.03;;;;;;;21.49;63.96;95985.16;10333106;28;96782;-61
2022/08/26 08:43:38;;;;;;;3.00;2.75;;;;;;;21.75;63.64;95985.91;10333545;28;97353;-61
2022/08/26 08:48:46;;;;;;;4.25;2.80;;;;;;;22.07;62.09;95980.34;10335015;28;96741;-60
2022/08/26 08:53:52;;;;;;;5.55;2.92;;;;;;;22.36;61.74;95993.88;10333780;28;97213;-60
2022/08/26 08:59:04;;;;;;;3.40;2.65;;;;;;;22.65;60.95;95988.72;10334462;28;96704;-60
2022/08/26 09:04:30;;;;;;;3.20;2.75;;;;;;;22.86;60.28;95982.84;10331836;28;97105;-60
2022/08/26 09:09:36;;;;;;;4.78;3.10;;;;;;;23.12;59.18;95991.41;10331926;28;96803;-62
2022/08/26 09:14:40;;;;;;;3.80;2.75;;;;;;;23.18;58.45;95979.81;10331942;28;98736;-60
2022/08/26 09:19:49;;;;;;;4.33;2.50;;;;;;;23.32;58.79;95980.41;10333569;28;96899;-61
2022/08/26 09:24:52;;;;;;;5.75;2.55;;;;;;;23.38;58.24;95972.28;10331504;28;96873;-60
2022/08/26 09:29:59;;;;;;;4.50;2.70;;;;;;;23.53;58.22;95971.78;10322781;28;97376;-61
2022/08/26 09:35:07;;;;;;;6.30;2.88;;;;;;;23.53;57.21;95970.97;10332653;28;97021;-63
2022/08/26 09:40:17;;;;;;;5.22;2.50;;;;;;;23.46;56.93;95951.63;10329006;28;97053;-61
2022/08/26 09:45:28;;;;;;;2.78;2.35;;;;;;;23.70;56.80;95966.50;10332905;28;98011;-61
2022/08/26 09:50:36;;;;;;;3.67;2.40;;;;;;;23.75;56.08;95963.94;10332844;28;96840;-62
2022/08/26 09:55:42;;;;;;;4.80;2.60;;;;;;;23.87;56.43;95963.09;10326865;28;97220;-61
2022/08/26 10:00:55;;;;;;;5.80;2.92;;;;;;;23.97;55.90;95954.44;10324034;28;97295;-60
2022/08/26 10:06:02;;;;;;;6.13;2.70;;;;;;;24.11;54.69;95951.28;10326244;28;97047;-61
2022/08/26 10:11:11;;;;;;;5.18;2.70;;;;;;;24.24;54.27;95952.00;10332697;28;96845;-61
2022/08/26 10:16:19;;;;;;;4.18;2.55;;;;;;;24.26;54.52;95947.25;10327725;28;96754;-61
2022/08/26 10:21:26;;;;;;;8.07;3.03;;;;;;;24.32;54.26;95951.63;10331732;28;97876;-61
2022/08/26 10:26:38;;;;;;;3.55;2.58;;;;;;;24.26;53.88;95949.91;10327847;28;97986;-60
2022/08/26 10:31:46;;;;;;;4.53;2.83;;;;;;;24.11;54.46;95951.28;10324142;28;98099;-63
2022/08/26 10:36:58;;;;;;;4.53;2.67;;;;;;;23.98;54.97;95946.19;10319643;28;97236;-59
2022/08/26 10:42:22;;;;;;;3.42;3.13;;;;;;;23.86;54.51;95948.13;10332278;28;96824;-59
2022/08/26 10:47:31;;;;;;;3.38;2.60;;;;;;;23.94;54.65;95934.41;10295621;28;97260;-60
2022/08/26 10:52:47;;;;;;;5.40;2.67;;;;;;;24.20;53.50;95932.22;10320621;28;96801;-61
2022/08/26 10:57:57;;;;;;;3.58;2.75;;;;;;;24.50;53.30;95935.38;10303228;28;96749;-61
2022/08/26 11:03:09;;;;;;;5.20;2.63;;;;;;;24.60;52.75;95925.91;10293223;28;96753;-60
2022/08/26 11:08:31;;;;;;;3.83;3.00;;;;;;;25.04;52.30;95926.00;10296821;28;97091;-60
2022/08/26 11:14:00;;;;;;;4.57;2.85;;;;;;;25.48;51.17;95918.00;10295844;28;96981;-60
2022/08/26 11:19:03;;;;;;;6.55;5.47;;;;;;;25.82;50.03;95909.81;10301172;28;97188;-60
2022/08/26 11:24:07;;;;;;;6.72;6.10;;;;;;;26.07;49.27;95897.72;10299368;28;97171;-60
2022/08/26 11:29:12;;;;;;;5.80;5.20;;;;;;;26.20;48.08;95894.66;10305918;28;96811;-60
2022/08/26 11:34:15;;;;;;;6.00;4.82;;;;;;;26.51;47.04;95884.19;10331548;28;96773;-60
2022/08/26 11:39:24;;;;;;;5.03;3.93;;;;;;;26.73;45.98;95881.41;10334684;28;97124;-60
2022/08/26 11:44:36;;;;;;;4.57;3.33;;;;;;;26.85;45.65;95884.69;10334302;28;96885;-61
2022/08/26 11:49:40;;;;;;;4.90;2.80;;;;;;;27.10;45.41;95878.66;10331113;28;97338;-61
2022/08/26 11:54:58;;;;;;;;;;;;;;;27.41;45.84;95881.47;10337580;28;97094;-60
2022/08/26 12:00:04;;;;;;;2.70;2.50;;;;;;;27.62;44.42;95870.81;10327315;28;97403;-60
2022/08/26 12:05:12;;;;;;;3.90;2.40;;;;;;;27.88;43.79;95873.56;10333813;28;97363;-61
2022/08/26 12:10:28;;;;;;;4.38;2.42;;;;;;;28.08;43.41;95876.22;10333193;28;96845;-60
2022/08/26 12:15:34;;;;;;;3.97;2.53;;;;;;;28.33;43.23;95882.72;10330990;28;96793;-60
2022/08/26 12:20:46;;;;;;;4.40;3.00;;;;;;;28.38;42.21;95880.03;10336305;28;97062;-60
2022/08/26 12:25:50;;;;;;;5.72;2.60;;;;;;;28.29;41.82;95878.94;10328017;28;96830;-60
2022/08/26 12:31:04;;;;;;;3.55;2.58;;;;;;;28.24;42.06;95887.81;10325659;28;97817;-60
2022/08/26 12:36:07;;;;;;;3.67;2.83;;;;;;;28.16;41.67;95881.06;10335878;28;97034;-60
2022/08/26 12:41:10;;;;;;;3.33;2.80;;;;;;;28.10;41.70;95884.84;10326538;28;96868;-60
2022/08/26 12:46:17;;;;;;;4.32;2.83;;;;;;;27.86;42.75;95882.66;10321533;28;97991;-60
2022/08/26 12:51:25;;;;;;;6.80;3.00;;;;;;;27.53;42.59;95867.00;10328837;28;96864;-62
2022/08/26 12:56:33;;;;;;;5.85;3.03;;;;;;;27.33;41.51;95863.19;10332757;28;97210;-60
2022/08/26 13:01:42;;;;;;;3.90;2.92;;;;;;;27.53;42.06;95864.34;10332462;28;96715;-62
2022/08/26 13:06:45;;;;;;;5.38;3.30;;;;;;;27.49;43.37;95855.97;10334818;28;96823;-60
2022/08/26 13:11:59;;;;;;;3.03;2.60;;;;;;;27.28;42.11;95857.81;10329466;28;97055;-60
2022/08/26 13:17:05;;;;;;;3.15;2.83;;;;;;;27.26;41.98;95846.53;10329010;28;97846;-61
2022/08/26 13:22:12;;;;;;;3.53;2.50;;;;;;;27.55;40.59;95841.53;10323150;28;96837;-60
2022/08/26 13:27:16;;;;;;;3.30;2.40;;;;;;;27.45;40.77;95838.81;10331475;28;96825;-63
2022/08/26 13:32:21;;;;;;;4.75;2.40;;;;;;;27.41;40.29;95833.19;10322693;28;97801;-60
2022/08/26 13:37:29;;;;;;;3.45;2.38;;;;;;;27.72;39.54;95825.22;10322022;28;97258;-61
2022/08/26 13:42:37;;;;;;;2.85;2.53;;;;;;;28.51;39.36;95814.97;10325135;28;97935;-60
2022/08/26 13:47:52;;;;;;;3.38;2.50;;;;;;;29.05;38.57;95818.06;10330992;28;96949;-62
2022/08/26 13:52:55;;;;;;;4.22;2.50;;;;;;;29.64;37.92;95825.28;10325771;28;98213;-61
2022/08/26 13:57:58;;;;;;;5.50;2.80;;;;;;;29.70;37.92;95810.72;10323914;28;96853;-61
2022/08/26 14:03:03;;;;;;;4.15;2.58;;;;;;;29.17;38.81;95810.47;10330211;28;97160;-60
2022/08/26 14:08:06;;;;;;;3.22;2.25;;;;;;;29.30;39.13;95803.69;10332270;28;97849;-61
2022/08/26 14:13:09;;;;;;;2.70;2.10;;;;;;;29.71;37.43;95801.59;10321527;28;97374;-62
2022/08/26 14:18:16;;;;;;;2.67;2.15;;;;;;;29.40;37.09;95810.88;10330588;28;96756;-61
2022/08/26 14:23:19;;;;;;;2.63;2.00;;;;;;;29.50;36.61;95806.25;10336792;28;97063;-61
2022/08/26 14:28:21;;;;;;;2.58;2.08;;;;;;;29.83;36.29;95803.09;10332289;28;96903;-62
2022/08/26 14:33:31;;;;;;;2.65;1.90;;;;;;;30.05;35.88;95795.38;10332532;28;96982;-61
2022/08/26 14:38:34;;;;;;;2.08;1.90;;;;;;;30.68;34.35;95785.59;10331688;28;96969;-60
2022/08/26 14:43:39;;;;;;;3.28;2.40;;;;;;;31.28;34.28;95787.06;10332043;28;97141;-61
2022/08/26 14:48:43;;;;;;;2.20;2.00;;;;;;;31.68;33.93;95790.28;10332003;28;96954;-61
2022/08/26 14:59:07;;;;;;;2.90;2.28;;;;;;;31.50;33.41;95778.41;10318597;28;97028;-65
2022/08/26 15:04:11;;;;;;;2.97;1.95;;;;;;;32.05;32.75;95778.63;10326403;28;98983;-62
2022/08/26 15:09:14;;;;;;;2.33;2.10;;;;;;;32.43;31.99;95780.41;10328777;28;97103;-62
2022/08/26 15:14:18;;;;;;;2.15;1.92;;;;;;;32.28;31.30;95776.91;10309910;28;98249;-61
2022/08/26 15:19:26;;;;;;;3.10;1.92;;;;;;;32.09;32.13;95774.25;10329914;28;96832;-62
2022/08/26 15:24:29;;;;;;;2.88;2.10;;;;;;;32.72;30.94;95770.13;10323364;28;97848;-62
2022/08/26 15:29:32;;;;;;;2.58;1.67;;;;;;;32.68;30.32;95757.50;10320111;28;96750;-62
2022/08/26 15:34:39;;;;;;;2.58;1.58;;;;;;;32.95;30.15;95753.19;10330874;28;96763;-62
2022/08/26 15:39:42;;;;;;;2.00;1.60;;;;;;;32.97;30.22;95751.78;10316958;28;96733;-61
2022/08/26 15:44:45;;;;;;;2.13;1.58;;;;;;;32.30;31.07;95736.84;10322352;28;96875;-61
2022/08/26 15:49:50;;;;;;;2.67;1.70;;;;;;;31.94;31.52;95734.78;10319934;28;99011;-61
2022/08/26 15:54:52;;;;;;;2.58;1.70;;;;;;;31.93;30.89;95735.88;10321325;28;97848;-63
2022/08/26 15:59:55;;;;;;;6.57;1.90;;;;;;;32.20;30.33;95731.63;10307942;28;98607;-70
2022/08/26 16:05:00;;;;;;;3.03;1.50;;;;;;;32.27;30.23;95721.22;10320278;28;98165;-68
2022/08/26 16:10:08;;;;;;;3.00;1.63;;;;;;;32.16;30.60;95719.81;10314848;28;96907;-67
2022/08/26 16:15:12;;;;;;;2.25;1.88;;;;;;;31.60;31.17;95711.53;10318820;28;96845;-65
2022/08/26 16:20:20;;;;;;;2.08;1.70;;;;;;;32.21;30.63;95717.00;10327426;28;96766;-68
2022/08/26 16:25:26;;;;;;;2.17;1.30;;;;;;;32.76;29.97;95727.06;10329581;28;97865;-68
2022/08/26 16:30:30;;;;;;;2.72;1.90;;;;;;;32.49;29.84;95727.84;10331191;28;99002;-69
2022/08/26 16:35:35;;;;;;;2.13;1.50;;;;;;;32.52;29.78;95738.09;10307998;28;98439;-68
2022/08/26 16:40:38;;;;;;;1.70;1.60;;;;;;;31.90;30.83;95733.75;10331656;28;99185;-68
2022/08/26 16:45:41;;;;;;;1.67;1.58;;;;;;;31.76;31.15;95738.28;10328997;28;97028;-68
2022/08/26 16:50:45;;;;;;;2.35;1.92;;;;;;;30.40;32.91;95746.84;10326182;28;97328;-68
2022/08/26 16:55:48;;;;;;;3.78;1.83;;;;;;;29.44;34.61;95750.06;10329574;28;97121;-68
2022/08/26 17:00:51;;;;;;;4.30;1.90;;;;;;;28.37;36.19;95749.47;10313342;28;97874;-68
2022/08/26 17:05:55;;;;;;;3.97;1.70;;;;;;;27.60;37.47;95744.94;10317988;28;98037;-68
2022/08/26 17:10:59;;;;;;;2.40;2.10;;;;;;;27.21;38.55;95745.41;10317273;28;97255;-68
2022/08/26 17:16:03;;;;;;;3.08;2.20;;;;;;;27.37;38.81;95750.81;10311253;28;98805;-68
2022/08/26 17:21:10;;;;;;;3.35;2.00;;;;;;;27.49;38.78;95754.03;10307804;28;97100;-68
2022/08/26 17:26:13;;;;;;;2.92;2.30;;;;;;;27.28;39.13;95759.41;10309244;28;97184;-66
2022/08/26 17:31:16;;;;;;;3.43;3.10;;;;;;;27.25;39.28;95759.13;10314911;28;98624;-70
2022/08/26 17:36:21;;;;;;;2.95;2.50;;;;;;;26.74;40.08;95759.75;10328917;28;97189;-67
2022/08/26 17:41:30;;;;;;;3.58;2.45;;;;;;;26.44;40.24;95755.06;10328083;28;97616;-67
2022/08/26 17:46:33;;;;;;;3.07;2.27;;;;;;;26.09;40.75;95751.88;10333174;28;98058;-68
2022/08/26 17:51:41;;;;;;;7.13;5.95;;;;;;;26.09;40.64;95756.44;10328312;28;97234;-66
2022/08/26 17:56:44;;;;;;;4.47;3.25;;;;;;;25.97;40.67;95745.91;10328576;28;97224;-66
2022/08/26 18:01:47;;;;;;;5.10;3.60;;;;;;;25.69;42.26;95771.94;10321544;28;97728;-67
2022/08/26 18:06:51;;;;;;;4.95;3.80;;;;;;;25.48;44.16;95765.56;10319332;28;97223;-67
2022/08/26 18:11:54;;;;;;;6.18;4.00;;;;;;;25.22;45.16;95773.34;10329409;28;97209;-67
2022/08/26 18:16:56;;;;;;;4.25;3.70;;;;;;;24.84;46.57;95783.09;10318773;28;98805;-67
2022/08/26 18:22:00;;;;;;;5.80;4.40;;;;;;;24.38;47.69;95774.44;10328354;28;97103;-67
2022/08/26 18:27:03;;;;;;;4.25;2.92;;;;;;;23.91;48.17;95780.16;10331753;28;97829;-68
2022/08/26 18:32:07;;;;;;;4.15;3.30;;;;;;;23.69;48.75;95788.06;10330455;28;97373;-67
2022/08/26 18:37:13;;;;;;;3.17;2.90;;;;;;;23.44;49.17;95791.91;10323320;28;97179;-67
2022/08/26 18:42:15;;;;;;;4.18;3.45;;;;;;;23.18;49.91;95788.75;10323305;28;98601;-67
2022/08/26 18:47:18;;;;;;;4.05;2.90;;;;;;;23.10;50.32;95791.81;10309961;28;97655;-68
2022/08/26 18:52:23;;;;;;;3.53;2.80;;;;;;;22.89;50.58;95790.63;10303742;28;96897;-68
2022/08/26 18:57:26;;;;;;;3.97;2.80;;;;;;;22.54;51.42;95794.16;10307408;28;97613;-68
2022/08/26 19:02:29;;;;;;;3.13;2.75;;;;;;;22.57;51.20;95809.66;10297973;28;98605;-68
2022/08/26 19:07:33;;;;;;;3.67;2.80;;;;;;;22.63;51.07;95818.59;10302832;28;96851;-67
2022/08/26 19:12:41;;;;;;;4.07;3.00;;;;;;;22.57;51.52;95815.00;10303085;28;97550;-69
2022/08/26 19:17:45;;;;;;;;;;;;;;;22.48;51.14;95815.59;10299227;28;97984;-68
2022/08/26 19:22:49;;;;;;;5.97;3.22;;;;;;;22.37;51.78;95825.16;10302169;28;96995;-68
2022/08/26 19:27:52;;;;;;;4.63;2.80;;;;;;;22.32;51.96;95830.38;10308046;28;97201;-68
2022/08/26 19:32:54;;;;;;;3.80;2.70;;;;;;;22.29;52.30;95822.88;10316582;28;96802;-68
2022/08/26 19:38:00;;;;;;;4.28;3.58;;;;;;;22.25;52.10;95828.66;10326997;28;97760;-68
2022/08/26 19:43:03;;;;;;;6.40;3.83;;;;;;;22.15;52.54;95828.41;10313718;28;96898;-67
2022/08/26 19:48:07;;;;;;;5.63;3.83;;;;;;;22.14;52.78;95831.28;10302967;28;96886;-66
2022/08/26 19:53:11;;;;;;;5.40;4.30;;;;;;;22.12;52.82;95834.19;10310150;28;97505;-67
2022/08/26 19:58:14;;;;;;;4.40;3.55;;;;;;;22.05;53.15;95828.16;10306029;28;97090;-66
2022/08/26 20:03:17;;;;;;;3.90;3.50;;;;;;;21.77;53.72;95829.63;10337246;28;97097;-66
2022/08/26 20:08:21;;;;;;;4.75;3.55;;;;;;;21.70;54.04;95839.56;10338640;28;97127;-65
2022/08/26 20:13:24;;;;;;;5.07;4.13;;;;;;;21.57;54.53;95832.56;10336495;28;97000;-66
2022/08/26 20:23:50;;;;;;;5.88;3.22;;;;;;;21.39;54.24;95843.25;10299415;28;97383;-66
2022/08/26 20:28:53;;;;;;;4.47;3.40;;;;;;;21.23;55.00;95842.84;10336541;28;96928;-65
2022/08/26 20:33:56;;;;;;;3.20;2.90;;;;;;;20.99;55.15;95820.66;10335559;28;96856;-66
2022/08/26 20:39:01;;;;;;;4.57;3.37;;;;;;;20.97;55.57;95849.28;10323853;28;97045;-65
2022/08/26 20:44:04;;;;;;;3.60;3.05;;;;;;;20.80;55.77;95848.28;10335420;28;97738;-65
2022/08/26 20:49:07;;;;;;;5.27;3.10;;;;;;;20.75;56.07;95841.78;10331851;28;96890;-65
2022/08/26 20:54:12;;;;;;;4.90;3.30;;;;;;;20.88;55.83;95850.63;10322996;28;98642;-69
2022/08/26 20:59:16;;;;;;;3.67;3.00;;;;;;;20.91;56.17;95850.16;10330894;28;98339;-66
2022/08/26 21:04:21;;;;;;;3.47;3.13;;;;;;;20.87;55.78;95856.97;10320605;28;96851;-66
2022/08/26 21:09:26;;;;;;;3.47;3.15;;;;;;;20.73;56.40;95858.94;10316489;28;98681;-67
2022/08/26 21:14:30;;;;;;;5.10;3.47;;;;;;;20.52;56.74;95857.53;10329907;28;96796;-66
2022/08/26 21:19:33;;;;;;;4.18;3.10;;;;;;;20.56;55.95;95858.69;10323723;28;97700;-67
2022/08/26 21:24:37;;;;;;;3.58;2.95;;;;;;;20.66;56.57;95856.34;10307135;28;97000;-66
2022/08/26 21:29:39;;;;;;;4.00;3.47;;;;;;;20.68;55.95;95856.94;10318537;28;96842;-66
2022/08/26 21:34:42;;;;;;;4.70;4.20;;;;;;;20.62;55.57;95847.22;10328703;28;97632;-66
2022/08/26 21:39:47;;;;;;;3.28;2.97;;;;;;;20.40;55.75;95849.47;10331150;28;97893;-66
2022/08/26 21:44:50;;;;;;;3.95;3.53;;;;;;;20.40;56.33;95844.16;10334252;28;97086;-66
2022/08/26 21:49:54;;;;;;;6.95;5.63;;;;;;;20.38;56.43;95847.03;10324348;28;98672;-66
2022/08/26 21:55:00;;;;;;;4.15;3.50;;;;;;;20.42;56.08;95857.22;10327839;28;96824;-66
2022/08/26 22:00:05;;;;;;;5.15;3.58;;;;;;;20.43;55.95;95845.56;10327278;28;96902;-66
2022/08/26 22:05:09;;;;;;;4.47;3.55;;;;;;;20.54;56.37;95852.78;10330768;28;97317;-66
2022/08/26 22:10:13;;;;;;;3.90;3.40;;;;;;;20.48;56.35;95845.72;10327919;28;96963;-66
2022/08/26 22:15:18;;;;;;;3.88;3.25;;;;;;;20.36;56.70;95854.41;10329070;28;96844;-66
2022/08/26 22:20:22;;;;;;;7.82;6.10;;;;;;;20.27;56.29;95849.59;10329572;28;97423;-66
2022/08/26 22:25:27;;;;;;;4.03;3.53;;;;;;;20.10;57.02;95850.16;10329527;28;97408;-66
2022/08/26 22:30:30;;;;;;;4.50;3.30;;;;;;;19.85;57.51;95847.47;10331105;28;97819;-66
2022/08/26 22:35:33;;;;;;;4.70;3.45;;;;;;;19.80;57.82;95849.94;10330531;28;97617;-66
2022/08/26 22:40:42;;;;;;;4.90;3.58;;;;;;;19.78;57.78;95852.81;10324898;28;96795;-66
2022/08/26 22:45:47;;;;;;;6.18;3.53;;;;;;;19.69;58.19;95859.38;10329322;28;97129;-66
2022/08/26 22:50:52;;;;;;;4.22;3.80;;;;;;;19.65;58.62;95854.75;10328921;28;97327;-69
2022/08/26 22:56:03;;;;;;;5.45;3.40;;;;;;;19.66;58.34;95854.50;10331312;28;96991;-66
2022/08/26 23:01:07;;;;;;;5.78;3.67;;;;;;;19.55;59.19;95855.22;10332013;28;97611;-66
2022/08/26 23:06:10;;;;;;;6.47;3.80;;;;;;;19.49;59.48;95848.09;10326674;28;96827;-66
2022/08/26 23:11:14;;;;;;;4.38;3.65;;;;;;;19.44;59.49;95851.41;10323395;28;97024;-66
2022/08/26 23:16:17;;;;;;;4.07;3.67;;;;;;;19.41;60.32;95851.81;10334812;28;98997;-66
2022/08/26 23:21:20;;;;;;;5.50;3.90;;;;;;;19.33;59.78;95849.41;10334688;28;97883;-66
2022/08/26 23:26:24;;;;;;;4.95;3.83;;;;;;;19.23;59.82;95849.91;10336659;28;97778;-66
2022/08/26 23:31:27;;;;;;;4.47;3.75;;;;;;;19.12;61.11;95842.59;10328121;28;97465;-66
2022/08/26 23:36:30;;;;;;;3.95;3.38;;;;;;;19.04;60.55;95846.31;10327457;28;96919;-67
2022/08/26 23:41:38;;;;;;;4.60;3.80;;;;;;;18.84;60.51;95841.88;10327435;28;98748;-66
2022/08/26 23:46:40;;;;;;;4.43;4.03;;;;;;;18.74;60.90;95846.81;10331073;28;97242;-66
2022/08/26 23:57:05;;;;;;;7.85;4.50;;;;;;;18.72;61.99;95845.38;10314537;28;98397;-66
